Time;durP1;ratioP1;P1;durP2;ratioP2;P2;SDS_P1;SDS_P2;PMS_P1;PMS_P2;Temp;Humidity;BMP_temperature;BMP_pressure;BME280_temperature;BME280_humidity;BME280_pressure;Samples;Min_cycle;Max_cycle;Signal;HPM_P1;HPM_P2
2023/09/28 00:05:43;;;;;;;2.78;2.30;;;;;;;19.96;90.33;100939.34;20814039;28;20055;-65
2023/09/28 00:15:46;;;;;;;3.15;2.55;;;;;;;19.99;90.08;100958.78;20818124;28;20056;-65
2023/09/28 00:25:48;;;;;;;2.35;2.15;;;;;;;19.98;90.00;100948.97;20857935;28;20416;-65
2023/09/28 00:35:50;;;;;;;2.20;2.00;;;;;;;19.98;89.92;100967.06;20814319;28;1088089;-65
2023/09/28 00:45:52;;;;;;;2.45;2.25;;;;;;;19.97;89.57;100965.34;20860409;28;20045;-65
2023/09/28 00:55:54;;;;;;;2.50;2.10;;;;;;;19.95;89.61;100960.09;20830824;28;20057;-65
2023/09/28 01:05:58;;;;;;;2.50;2.25;;;;;;;19.94;89.29;100960.25;20847002;28;20052;-65
2023/09/28 01:15:59;;;;;;;2.72;2.33;;;;;;;19.93;89.25;100953.97;20848001;28;20056;-65
2023/09/28 01:26:04;;;;;;;2.65;2.17;;;;;;;19.92;89.17;100952.28;20809695;28;20052;-65
2023/09/28 01:36:07;;;;;;;;;;;;;;;19.92;88.83;100965.78;20831054;28;20048;-65
2023/09/28 01:46:10;;;;;;;2.58;2.38;;;;;;;19.90;88.63;100956.13;20857731;28;20315;-64
2023/09/28 01:56:11;;;;;;;2.78;2.22;;;;;;;19.90;88.52;100964.22;20833378;28;20456;-65
2023/09/28 02:06:14;;;;;;;2.38;2.17;;;;;;;19.89;88.36;100960.66;20818201;28;20417;-65
2023/09/28 02:16:16;;;;;;;3.95;2.40;;;;;;;19.90;88.27;100964.22;20823135;28;20048;-65
2023/09/28 02:26:18;;;;;;;3.10;2.72;;;;;;;19.87;88.41;100957.25;20815383;28;20048;-64
2023/09/28 02:36:20;;;;;;;2.60;2.30;;;;;;;19.85;88.39;100968.19;20806737;28;20496;-65
2023/09/28 02:46:24;;;;;;;2.50;2.30;;;;;;;19.85;88.28;100978.16;20829372;28;20057;-65
2023/09/28 02:56:27;;;;;;;2.57;2.30;;;;;;;19.84;87.89;100996.22;20822780;28;20093;-65
2023/09/28 03:06:37;;;;;;;2.42;2.22;;;;;;;19.83;88.16;101001.78;20844083;28;20823;-65
2023/09/28 03:16:39;;;;;;;2.55;2.35;;;;;;;19.82;87.99;101016.28;20822965;28;20057;-65
2023/09/28 03:26:41;;;;;;;2.40;2.20;;;;;;;19.81;88.03;101018.13;20836437;28;20132;-65
2023/09/28 03:36:46;;;;;;;3.47;2.70;;;;;;;19.79;87.89;101022.81;20833316;28;20423;-65
2023/09/28 03:46:48;;;;;;;4.32;2.35;;;;;;;19.77;88.01;101023.97;20821542;28;20053;-65
2023/09/28 03:56:50;;;;;;;3.00;2.20;;;;;;;19.76;88.13;101017.69;20849361;28;20131;-65
2023/09/28 04:06:52;;;;;;;2.80;2.20;;;;;;;19.71;88.01;101020.00;20831287;28;20247;-65
2023/09/28 04:16:54;;;;;;;2.55;2.08;;;;;;;19.72;88.24;101037.91;20824651;28;20052;-65
2023/09/28 04:26:58;;;;;;;2.55;2.30;;;;;;;19.67;88.54;101045.59;20863545;28;20049;-65
2023/09/28 04:37:00;;;;;;;2.17;1.83;;;;;;;19.59;88.56;101057.09;20833751;28;20053;-65
2023/09/28 04:47:02;;;;;;;2.17;1.98;;;;;;;19.55;88.75;101048.47;20831048;28;20119;-65
2023/09/28 04:57:04;;;;;;;2.70;2.10;;;;;;;19.51;88.73;101056.97;20795017;28;20050;-65
2023/09/28 05:07:06;;;;;;;2.67;2.40;;;;;;;19.48;89.08;101073.47;20798328;28;20041;-65
2023/09/28 05:17:08;;;;;;;2.90;2.30;;;;;;;19.47;89.14;101077.16;20797409;28;20053;-65
2023/09/28 05:27:10;;;;;;;2.95;2.30;;;;;;;19.44;89.29;101075.59;20792038;28;20053;-65
2023/09/28 05:37:12;;;;;;;2.60;2.40;;;;;;;19.41;89.32;101083.97;20854723;28;20055;-65
2023/09/28 05:47:15;;;;;;;2.88;2.17;;;;;;;19.39;89.49;101112.97;20869972;28;20061;-65
2023/09/28 05:57:16;;;;;;;2.22;2.00;;;;;;;19.39;89.49;101145.34;20812446;28;20146;-65
2023/09/28 06:07:18;;;;;;;2.05;1.85;;;;;;;19.39;89.65;101161.56;20789257;28;20056;-65
2023/09/28 06:17:20;;;;;;;2.22;2.03;;;;;;;19.38;89.57;101167.94;20816458;28;20048;-65
2023/09/28 06:27:25;;;;;;;2.55;1.98;;;;;;;19.42;89.50;101169.38;20871635;28;20485;-65
2023/09/28 06:37:27;;;;;;;2.22;1.83;;;;;;;19.44;89.63;101194.38;20877345;28;20417;-65
2023/09/28 06:47:29;;;;;;;2.50;1.83;;;;;;;19.48;89.37;101203.94;20886943;28;20045;-64
2023/09/28 06:57:46;;;;;;;2.70;2.10;;;;;;;19.55;89.43;101193.41;20886326;28;20052;-64
2023/09/28 07:07:48;;;;;;;3.47;2.22;;;;;;;19.68;89.28;101201.25;20853081;28;20045;-65
2023/09/28 07:17:50;;;;;;;2.80;2.03;;;;;;;19.98;88.34;101226.47;20884003;28;20055;-65
2023/09/28 07:27:52;;;;;;;2.88;2.15;;;;;;;20.26;87.15;101230.16;20882804;28;20390;-65
2023/09/28 07:37:54;;;;;;;3.20;1.75;;;;;;;20.49;85.98;101259.56;20864270;28;20044;-65
2023/09/28 07:47:55;;;;;;;4.18;2.00;;;;;;;20.72;84.96;101273.59;20824517;28;20614;-66
2023/09/28 07:57:58;;;;;;;5.53;2.25;;;;;;;20.90;84.28;101275.59;20829143;28;20053;-66
2023/09/28 08:08:20;;;;;;;3.53;1.98;;;;;;;21.03;83.73;101282.53;20798771;28;20100;-65
2023/09/28 08:18:22;;;;;;;6.47;2.92;;;;;;;20.97;84.05;101292.09;20830620;28;20051;-66
2023/09/28 08:28:24;;;;;;;3.53;1.88;;;;;;;21.00;84.03;101295.38;20827481;28;20564;-66
2023/09/28 08:38:26;;;;;;;4.22;2.10;;;;;;;21.06;83.87;101293.06;20862198;28;20052;-65
2023/09/28 08:48:29;;;;;;;6.43;2.63;;;;;;;21.10;83.85;101332.38;20831679;28;20056;-65
2023/09/28 08:58:35;;;;;;;5.50;2.10;;;;;;;21.01;84.03;101337.69;20798274;28;20049;-65
2023/09/28 09:08:38;;;;;;;6.07;2.53;;;;;;;20.96;84.32;101339.97;20802452;28;20056;-61
2023/09/28 09:18:42;;;;;;;3.88;2.03;;;;;;;20.93;84.20;101318.63;20837635;28;20056;-61
2023/09/28 09:28:46;;;;;;;5.15;2.42;;;;;;;20.93;84.06;101351.09;20825586;28;20129;-61
2023/09/28 09:38:50;;;;;;;5.80;2.08;;;;;;;20.93;84.11;101363.75;20821849;28;20080;-61
2023/09/28 09:48:53;;;;;;;5.15;2.10;;;;;;;20.89;84.12;101363.22;20831684;28;20053;-61
2023/09/28 09:58:55;;;;;;;6.45;2.00;;;;;;;20.82;84.01;101349.41;20815640;28;20505;-61
2023/09/28 10:08:59;;;;;;;6.13;2.13;;;;;;;20.91;83.74;101366.63;20827653;28;20511;-61
2023/09/28 10:19:04;;;;;;;6.30;2.58;;;;;;;20.90;83.55;101370.31;20837648;28;20045;-61
2023/09/28 10:29:07;;;;;;;4.65;2.47;;;;;;;20.88;83.35;101380.44;20825804;28;20045;-61
2023/09/28 10:39:14;;;;;;;6.75;2.35;;;;;;;20.85;83.10;101387.00;20860456;28;20107;-61
2023/09/28 10:49:22;;;;;;;5.82;2.20;;;;;;;20.85;82.91;101386.16;20806108;28;20456;-61
2023/09/28 10:59:24;;;;;;;6.32;1.92;;;;;;;20.85;82.80;101387.00;20809049;28;20076;-61
2023/09/28 11:09:28;;;;;;;5.57;2.05;;;;;;;20.88;82.60;101387.69;20877008;28;20071;-61
2023/09/28 11:19:30;;;;;;;8.47;2.43;;;;;;;20.90;82.30;101400.09;20870545;28;20054;-61
2023/09/28 11:29:32;;;;;;;5.22;2.47;;;;;;;20.97;82.24;101392.22;20829319;28;20049;-61
2023/09/28 11:39:34;;;;;;;5.80;1.95;;;;;;;21.00;82.05;101390.09;20864199;28;20052;-61
2023/09/28 11:49:41;;;;;;;5.45;2.10;;;;;;;21.03;81.84;101388.97;20848996;28;20105;-61
2023/09/28 11:59:43;;;;;;;5.30;1.60;;;;;;;21.04;81.54;101387.97;20853089;28;20417;-61
2023/09/28 12:09:45;;;;;;;4.90;1.90;;;;;;;21.08;81.34;101400.22;20856386;28;20555;-61
2023/09/28 12:20:06;;;;;;;4.93;2.00;;;;;;;21.09;81.35;101390.22;20853731;28;20059;-62
2023/09/28 12:30:08;;;;;;;6.20;1.83;;;;;;;21.06;81.24;101402.22;20819040;28;20054;-61
2023/09/28 12:40:12;;;;;;;5.32;1.90;;;;;;;21.04;81.21;101406.91;20807701;28;20099;-61
2023/09/28 12:50:14;;;;;;;7.03;2.10;;;;;;;21.04;81.05;101406.06;20860340;28;20075;-61
2023/09/28 13:00:17;;;;;;;5.35;1.95;;;;;;;21.00;81.14;101406.34;20875114;28;20043;-61
2023/09/28 13:10:24;;;;;;;5.97;1.85;;;;;;;20.93;81.20;101394.41;20875894;28;20460;-61
2023/09/28 13:20:28;;;;;;;6.43;2.55;;;;;;;20.97;81.04;101398.50;20875469;28;20098;-61
2023/09/28 13:30:38;;;;;;;;;;;;;;;20.95;81.11;101403.22;20864341;28;20127;-61
2023/09/28 13:40:40;;;;;;;6.95;1.90;;;;;;;20.93;81.08;101399.81;20821090;28;19948;-61
2023/09/28 13:50:44;;;;;;;5.55;1.80;;;;;;;20.91;81.20;101407.22;20808875;28;20418;-61
2023/09/28 14:00:46;;;;;;;4.43;1.90;;;;;;;20.90;81.42;101421.75;20824215;28;20057;-61
2023/09/28 14:10:48;;;;;;;4.35;1.80;;;;;;;20.83;81.50;101420.63;20830593;28;20123;-61
2023/09/28 14:20:49;;;;;;;4.35;1.40;;;;;;;20.86;81.75;101404.09;20829739;28;20045;-61
2023/09/28 14:30:52;;;;;;;6.95;1.88;;;;;;;20.84;81.67;101414.22;20822146;28;20044;-63
2023/09/28 14:40:54;;;;;;;6.72;2.42;;;;;;;20.83;82.36;101412.50;20828428;28;20042;-62
2023/09/28 14:50:56;;;;;;;7.90;1.90;;;;;;;20.82;82.51;101394.56;20805651;28;20635;-60
2023/09/28 15:00:58;;;;;;;6.10;1.77;;;;;;;20.86;82.70;101398.69;20791168;28;20054;-60
2023/09/28 15:11:00;;;;;;;7.00;1.73;;;;;;;20.92;82.96;101376.44;20820311;28;20053;-61
2023/09/28 15:21:07;;;;;;;2.92;1.30;;;;;;;20.96;83.03;101372.44;20830867;28;20037;-62
2023/09/28 15:31:10;;;;;;;5.13;1.60;;;;;;;20.98;83.06;101378.56;20828700;28;20084;-62
2023/09/28 15:41:35;;;;;;;5.70;1.65;;;;;;;21.00;83.16;101357.63;20794274;28;20525;-61
2023/09/28 15:51:37;;;;;;;5.47;2.33;;;;;;;21.05;84.29;101350.91;20801214;28;20053;-63
2023/09/28 16:01:41;;;;;;;7.55;2.63;;;;;;;21.13;89.28;101367.28;20809376;28;20059;-65
2023/09/28 16:11:43;;;;;;;8.47;3.43;;;;;;;21.17;89.09;101378.69;20808952;28;20113;-63
2023/09/28 16:21:44;;;;;;;8.85;3.70;;;;;;;21.18;91.90;101381.22;20792415;28;20099;-63
2023/09/28 16:31:46;;;;;;;8.73;3.33;;;;;;;21.28;91.68;101383.91;20795871;28;20057;-63
2023/09/28 16:41:48;;;;;;;5.95;2.80;;;;;;;21.36;91.32;101385.88;20788740;28;20065;-62
2023/09/28 16:51:50;;;;;;;6.88;2.53;;;;;;;21.33;90.88;101367.22;20790537;28;20057;-61
2023/09/28 17:01:52;;;;;;;7.03;2.40;;;;;;;21.22;90.31;101355.59;20789481;28;20476;-64
2023/09/28 17:11:54;;;;;;;7.82;2.47;;;;;;;21.15;90.10;101354.44;20774589;28;20056;-63
2023/09/28 17:21:56;;;;;;;8.98;2.33;;;;;;;21.06;89.86;101341.78;20778883;28;20053;-64
2023/09/28 17:31:57;;;;;;;8.75;2.65;;;;;;;20.97;90.35;101346.22;20794187;28;20049;-64
2023/09/28 17:41:59;;;;;;;7.10;2.28;;;;;;;20.89;90.95;101343.41;20789267;28;20053;-63
2023/09/28 17:52:01;;;;;;;7.35;2.22;;;;;;;20.80;91.63;101345.97;20813690;28;20588;-65
2023/09/28 18:02:03;;;;;;;8.73;2.67;;;;;;;20.69;91.40;101352.34;20834022;28;20049;-65
2023/09/28 18:12:06;;;;;;;7.00;2.78;;;;;;;20.58;91.50;101353.38;20849160;28;20045;-65
2023/09/28 18:22:08;;;;;;;3.70;1.90;;;;;;;20.50;91.47;101360.50;20815445;28;20041;-65
2023/09/28 18:32:10;;;;;;;7.10;2.13;;;;;;;20.41;91.52;101352.25;20844132;28;20053;-64
2023/09/28 18:42:13;;;;;;;8.98;2.60;;;;;;;20.35;91.43;101360.94;20887240;28;20045;-64
2023/09/28 18:52:15;;;;;;;7.00;2.08;;;;;;;20.27;91.56;101363.47;20884211;28;20053;-64
2023/09/28 19:02:16;;;;;;;8.18;2.60;;;;;;;20.19;91.55;101369.59;20848196;28;20180;-65
2023/09/28 19:12:18;;;;;;;6.32;2.13;;;;;;;20.14;91.74;101351.09;20816378;28;20049;-65
2023/09/28 19:22:22;;;;;;;5.07;2.33;;;;;;;20.10;91.78;101360.47;20821269;28;20056;-65
2023/09/28 19:32:23;;;;;;;7.10;2.50;;;;;;;20.06;93.85;101377.97;20814905;28;20061;-65
2023/09/28 19:42:25;;;;;;;7.97;2.65;;;;;;;19.99;96.51;101363.28;20819084;28;20049;-64
2023/09/28 19:52:27;;;;;;;8.10;2.78;;;;;;;19.94;96.55;101346.66;20861975;28;20056;-65
2023/09/28 20:02:29;;;;;;;7.47;2.63;;;;;;;19.93;95.77;101329.56;20847077;28;20053;-65
2023/09/28 20:12:31;;;;;;;7.28;2.85;;;;;;;19.89;95.01;101327.28;20821116;28;20129;-65
2023/09/28 20:22:33;;;;;;;5.18;2.38;;;;;;;19.90;94.68;101334.38;20876559;28;20057;-65
2023/09/28 20:32:55;;;;;;;6.40;2.00;;;;;;;19.88;94.42;101325.53;20836270;28;20041;-65
2023/09/28 20:42:58;;;;;;;6.18;2.17;;;;;;;19.83;94.23;101315.16;20801828;28;20449;-64
2023/09/28 20:52:59;;;;;;;4.85;2.10;;;;;;;19.78;94.11;101312.03;20840270;28;20051;-64
2023/09/28 21:03:02;;;;;;;4.85;2.25;;;;;;;19.71;93.95;101306.31;20875304;28;20045;-64
2023/09/28 21:13:05;;;;;;;5.72;2.17;;;;;;;19.65;94.10;101312.28;20851836;28;20061;-64
2023/09/28 21:23:07;;;;;;;5.22;2.03;;;;;;;19.59;93.84;101296.63;20828549;28;20048;-64
2023/09/28 21:33:08;;;;;;;4.82;1.83;;;;;;;19.54;93.89;101284.38;20825143;28;20056;-65
2023/09/28 21:43:10;;;;;;;4.82;2.05;;;;;;;19.50;93.77;101280.25;20845608;28;20045;-64
2023/09/28 21:53:13;;;;;;;3.88;1.92;;;;;;;19.48;93.64;101281.38;20853601;28;20385;-64
2023/09/28 22:03:15;;;;;;;6.50;3.20;;;;;;;19.49;93.20;101286.66;20873026;28;20041;-65
2023/09/28 22:13:17;;;;;;;4.25;2.70;;;;;;;19.54;92.49;101279.00;20818626;28;20052;-65
2023/09/28 22:23:19;;;;;;;5.97;2.85;;;;;;;19.56;92.18;101270.72;20811534;28;20049;-65
2023/09/28 22:33:20;;;;;;;5.20;2.58;;;;;;;19.56;91.82;101281.53;20805714;28;21051;-65
2023/09/28 22:43:23;;;;;;;5.78;2.38;;;;;;;19.55;91.62;101280.69;20833982;28;20551;-64
2023/09/28 22:53:24;;;;;;;4.82;2.40;;;;;;;19.54;91.45;101273.59;20798932;28;20049;-65
2023/09/28 23:03:26;;;;;;;5.68;2.65;;;;;;;19.54;91.23;101251.13;20826663;28;20052;-64
2023/09/28 23:13:28;;;;;;;4.90;2.65;;;;;;;19.53;91.27;101258.38;20806768;28;20509;-65
2023/09/28 23:23:30;;;;;;;6.22;2.40;;;;;;;19.52;91.10;101262.06;20825692;28;20058;-65
2023/09/28 23:33:32;;;;;;;5.18;2.17;;;;;;;19.52;90.84;101266.59;20822659;28;20501;-65
2023/09/28 23:43:35;;;;;;;4.28;2.10;;;;;;;19.49;90.96;101254.25;20826871;28;20409;-65
2023/09/28 23:53:37;;;;;;;4.18;2.00;;;;;;;19.47;90.91;101252.66;20831057;28;20156;-64
